Time;durP1;ratioP1;P1;durP2;ratioP2;P2;SDS_P1;SDS_P2;PMS_P1;PMS_P2;Temp;Humidity;BMP_temperature;BMP_pressure;BME280_temperature;BME280_humidity;BME280_pressure;Samples;Min_cycle;Max_cycle;Signal;HPM_P1;HPM_P2
2021/10/04 00:00:59;;;;;;;7.40;1.50;;;;;;;10.75;100.00;101206.91;5160832;28;20042;-73
2021/10/04 00:03:29;;;;;;;5.53;1.75;;;;;;;10.74;100.00;101205.19;5160800;28;20041;-73
2021/10/04 00:06:00;;;;;;;5.93;1.45;;;;;;;10.69;100.00;101206.69;5160782;28;20022;-73
2021/10/04 00:08:31;;;;;;;7.55;1.63;;;;;;;10.65;100.00;101216.91;5160819;28;20030;-73
2021/10/04 00:11:02;;;;;;;7.65;1.70;;;;;;;10.64;100.00;101204.47;5160390;28;20025;-73
2021/10/04 00:13:32;;;;;;;7.47;1.70;;;;;;;10.61;100.00;101205.63;5160742;28;20396;-73
2021/10/04 00:16:03;;;;;;;8.25;1.95;;;;;;;10.74;100.00;101202.50;5160812;28;20042;-72
2021/10/04 00:18:34;;;;;;;5.43;1.67;;;;;;;10.72;100.00;101201.84;5160670;28;20029;-73
2021/10/04 00:21:04;;;;;;;5.80;2.25;;;;;;;10.74;100.00;101204.34;5160623;28;20030;-72
2021/10/04 00:23:35;;;;;;;15.40;1.92;;;;;;;10.74;100.00;101210.56;5160511;28;20026;-73
2021/10/04 00:26:05;;;;;;;5.22;1.73;;;;;;;10.73;100.00;101214.25;5160746;28;20022;-73
2021/10/04 00:28:36;;;;;;;3.78;2.08;;;;;;;10.77;100.00;101226.38;5160632;28;20026;-73
2021/10/04 00:31:07;;;;;;;10.80;2.08;;;;;;;10.76;100.00;101221.16;5160202;28;20026;-74
2021/10/04 00:33:38;;;;;;;4.78;1.95;;;;;;;10.78;100.00;101227.19;5160486;28;20069;-74
2021/10/04 00:36:08;;;;;;;9.95;2.00;;;;;;;10.77;100.00;101228.22;5159964;28;20038;-73
2021/10/04 00:38:39;;;;;;;11.18;2.20;;;;;;;10.78;100.00;101227.19;5160469;28;20069;-73
2021/10/04 00:41:09;;;;;;;4.57;1.52;;;;;;;10.73;100.00;101235.72;5160297;28;20476;-73
2021/10/04 00:43:40;;;;;;;11.13;2.47;;;;;;;10.74;100.00;101244.63;5160554;28;20072;-73
2021/10/04 00:46:10;;;;;;;6.38;1.60;;;;;;;10.72;100.00;101249.31;5160619;28;20037;-73
2021/10/04 00:48:41;;;;;;;5.85;1.73;;;;;;;10.73;100.00;101262.56;5160005;28;20031;-73
2021/10/04 00:51:11;;;;;;;9.20;1.55;;;;;;;10.70;100.00;101267.41;5160159;28;20061;-73
2021/10/04 00:53:42;;;;;;;7.22;1.70;;;;;;;10.71;100.00;101256.53;5160272;28;20058;-73
2021/10/04 00:56:14;;;;;;;5.47;1.50;;;;;;;10.72;100.00;101252.00;5160268;28;20109;-73
2021/10/04 00:58:45;;;;;;;6.75;1.50;;;;;;;10.74;100.00;101248.13;5142689;28;20018;-73
2021/10/04 01:01:16;;;;;;;5.05;2.10;;;;;;;10.76;100.00;101245.31;5159944;28;20476;-73
2021/10/04 01:03:46;;;;;;;10.77;2.10;;;;;;;10.70;100.00;101246.78;5160405;28;20066;-74
2021/10/04 01:06:35;;;;;;;3.70;1.30;;;;;;;10.65;100.00;101237.53;5160650;28;20034;-74
2021/10/04 01:09:07;;;;;;;5.25;1.48;;;;;;;10.66;100.00;101239.22;5160370;28;20078;-73
2021/10/04 01:11:37;;;;;;;6.30;1.40;;;;;;;10.66;100.00;101248.09;5160416;28;20136;-74
2021/10/04 01:14:08;;;;;;;6.97;1.60;;;;;;;10.62;100.00;101244.88;5160413;28;20415;-72
2021/10/04 01:16:38;;;;;;;6.70;1.70;;;;;;;10.59;100.00;101239.84;5160296;28;20531;-74
2021/10/04 01:19:10;;;;;;;8.75;1.50;;;;;;;10.54;100.00;101244.84;5160164;28;20026;-75
2021/10/04 01:21:41;;;;;;;3.05;1.40;;;;;;;10.46;100.00;101238.56;5160198;28;20526;-74
2021/10/04 01:24:13;;;;;;;3.58;1.50;;;;;;;10.42;100.00;101240.69;5160376;28;20046;-75
2021/10/04 01:26:45;;;;;;;7.10;2.13;;;;;;;10.37;100.00;101230.44;5160429;28;20022;-75
2021/10/04 01:29:18;;;;;;;5.00;1.70;;;;;;;10.29;100.00;101227.72;5160089;28;20109;-75
2021/10/04 01:31:49;;;;;;;9.18;1.90;;;;;;;10.29;100.00;101226.84;5160332;28;20023;-75
2021/10/04 01:34:19;;;;;;;7.32;1.60;;;;;;;10.22;100.00;101223.91;5159806;28;20026;-72
2021/10/04 01:36:50;;;;;;;6.32;1.90;;;;;;;10.17;100.00;101217.34;5163831;28;20033;-74
2021/10/04 01:39:21;;;;;;;6.63;2.00;;;;;;;10.13;100.00;101224.84;5163499;28;20023;-72
2021/10/04 01:41:52;;;;;;;8.02;2.30;;;;;;;10.07;100.00;101231.66;5164244;28;20019;-73
2021/10/04 01:44:22;;;;;;;5.93;2.58;;;;;;;10.04;100.00;101223.06;5163794;28;20032;-73
2021/10/04 01:46:53;;;;;;;8.43;1.85;;;;;;;10.03;100.00;101227.59;5163823;28;20076;-73
2021/10/04 01:49:24;;;;;;;7.03;1.85;;;;;;;10.01;100.00;101234.13;5163426;28;20033;-73
2021/10/04 01:51:54;;;;;;;5.35;2.40;;;;;;;9.99;100.00;101223.56;5163719;28;20101;-73
2021/10/04 01:54:27;;;;;;;4.32;2.03;;;;;;;9.98;100.00;101216.50;5163632;28;20490;-73
2021/10/04 01:56:57;;;;;;;14.18;3.95;;;;;;;9.99;100.00;101220.00;5163457;28;20030;-74
2021/10/04 01:59:28;;;;;;;5.78;2.42;;;;;;;9.92;100.00;101238.56;5162878;28;20032;-74
2021/10/04 02:01:59;;;;;;;7.93;2.10;;;;;;;9.84;100.00;101228.59;5163076;28;20031;-73
2021/10/04 02:04:29;;;;;;;8.27;2.22;;;;;;;9.83;100.00;101234.09;5163478;28;20030;-73
2021/10/04 02:07:00;;;;;;;7.38;2.17;;;;;;;9.78;100.00;101231.03;5163272;28;20030;-73
2021/10/04 02:09:31;;;;;;;8.50;2.10;;;;;;;9.70;100.00;101239.00;5162975;28;20520;-73
2021/10/04 02:12:02;;;;;;;8.05;2.28;;;;;;;9.63;100.00;101233.38;5163282;28;20491;-74
2021/10/04 02:14:35;;;;;;;7.97;2.33;;;;;;;9.56;100.00;101226.97;5163192;28;20026;-73
2021/10/04 02:17:10;;;;;;;7.00;2.30;;;;;;;9.49;100.00;101221.38;5163368;28;20026;-74
2021/10/04 02:19:40;;;;;;;8.15;2.78;;;;;;;9.47;100.00;101219.81;5162678;28;20037;-73
2021/10/04 02:22:11;;;;;;;7.93;2.50;;;;;;;9.43;100.00;101221.94;5162818;28;20054;-73
2021/10/04 02:24:41;;;;;;;7.88;1.98;;;;;;;9.39;100.00;101219.72;5162945;28;20057;-73
2021/10/04 02:27:12;;;;;;;5.63;2.03;;;;;;;9.36;100.00;101223.53;5163088;28;20471;-73
2021/10/04 02:29:42;;;;;;;9.27;2.58;;;;;;;9.38;100.00;101226.91;5162840;28;20076;-73
2021/10/04 02:32:13;;;;;;;8.25;2.28;;;;;;;9.37;100.00;101230.56;5162857;28;20061;-73
2021/10/04 02:34:43;;;;;;;3.95;1.77;;;;;;;9.37;100.00;101230.56;5162381;28;20471;-73
2021/10/04 02:37:14;;;;;;;4.85;1.98;;;;;;;9.39;100.00;101241.13;5162704;28;20117;-73
2021/10/04 02:39:44;;;;;;;8.73;2.63;;;;;;;9.40;100.00;101232.13;5162301;28;20537;-73
2021/10/04 02:42:15;;;;;;;6.10;2.75;;;;;;;9.41;100.00;101240.00;5162821;28;20423;-73
2021/10/04 02:44:45;;;;;;;5.32;2.20;;;;;;;9.46;100.00;101240.41;5162564;28;20022;-72
2021/10/04 02:47:16;;;;;;;10.10;2.33;;;;;;;9.46;100.00;101239.56;5161663;28;20030;-74
2021/10/04 02:49:46;;;;;;;5.68;2.20;;;;;;;9.47;100.00;101247.44;5162216;28;20415;-74
2021/10/04 02:52:18;;;;;;;6.57;1.88;;;;;;;9.43;100.00;101246.03;5162508;28;20026;-75
2021/10/04 02:54:48;;;;;;;8.70;1.92;;;;;;;9.40;100.00;101238.31;5162570;28;20413;-74
2021/10/04 02:57:19;;;;;;;11.00;2.30;;;;;;;9.41;100.00;101236.50;5162555;28;20032;-72
2021/10/04 02:59:49;;;;;;;8.00;1.73;;;;;;;9.43;100.00;101248.72;5161986;28;20076;-72
2021/10/04 03:02:20;;;;;;;11.18;2.35;;;;;;;9.45;100.00;101253.94;5162061;28;20107;-73
2021/10/04 03:04:50;;;;;;;5.47;1.40;;;;;;;9.47;100.00;101246.59;5161929;28;20388;-73
2021/10/04 03:07:21;;;;;;;6.40;1.73;;;;;;;9.47;100.00;101247.44;5145042;28;20442;-73
2021/10/04 03:09:52;;;;;;;5.63;1.63;;;;;;;9.48;100.00;101253.63;5161813;28;20060;-71
2021/10/04 03:12:23;;;;;;;8.48;2.30;;;;;;;9.44;100.00;101253.09;5162618;28;20456;-72
2021/10/04 03:14:54;;;;;;;4.32;1.65;;;;;;;9.40;100.00;101258.91;5161654;28;20038;-72
2021/10/04 03:17:25;;;;;;;7.20;1.55;;;;;;;9.33;100.00;101251.44;5162072;28;20081;-72
2021/10/04 03:19:55;;;;;;;4.18;1.63;;;;;;;9.31;100.00;101249.94;5144268;28;20026;-72
2021/10/04 03:22:26;;;;;;;6.38;1.60;;;;;;;9.27;100.00;101252.03;5161955;28;20038;-73
2021/10/04 03:24:57;;;;;;;8.23;1.55;;;;;;;9.23;100.00;101261.34;5161412;28;20579;-72
2021/10/04 03:27:27;;;;;;;4.53;1.85;;;;;;;9.14;100.00;101264.94;5161710;28;20023;-73
2021/10/04 03:29:58;;;;;;;4.82;1.75;;;;;;;9.07;100.00;101277.19;5161550;28;20037;-72
2021/10/04 03:32:28;;;;;;;8.45;1.40;;;;;;;9.08;100.00;101282.41;5161748;28;20035;-71
2021/10/04 03:34:59;;;;;;;4.95;1.90;;;;;;;9.11;100.00;101289.31;5161366;28;20030;-72
2021/10/04 03:37:29;;;;;;;5.88;1.80;;;;;;;9.07;100.00;101293.25;5161342;28;20364;-71
2021/10/04 03:40:00;;;;;;;10.75;3.75;;;;;;;9.06;100.00;101295.09;5161256;28;20080;-73
2021/10/04 03:42:30;;;;;;;4.95;1.48;;;;;;;9.05;100.00;101288.06;5161256;28;20019;-72
2021/10/04 03:45:01;;;;;;;4.45;1.27;;;;;;;9.08;100.00;101290.44;5161635;28;20041;-72
2021/10/04 03:47:32;;;;;;;6.35;2.28;;;;;;;9.12;100.00;101295.50;5161154;28;20080;-72
2021/10/04 03:50:05;;;;;;;5.30;1.42;;;;;;;9.14;100.00;101294.38;5144209;28;20502;-71
2021/10/04 03:52:36;;;;;;;6.72;1.30;;;;;;;9.14;100.00;101293.53;5161498;28;20150;-73
2021/10/04 03:55:09;;;;;;;7.90;1.95;;;;;;;9.17;100.00;101296.75;5161449;28;20041;-72
2021/10/04 03:57:41;;;;;;;4.40;1.33;;;;;;;9.21;100.00;101305.34;5161000;28;20030;-73
2021/10/04 04:00:16;;;;;;;6.70;1.92;;;;;;;9.18;100.00;101300.25;5160528;28;20057;-72
2021/10/04 04:02:47;;;;;;;5.78;1.50;;;;;;;9.18;100.00;101290.41;5160784;28;20074;-72
2021/10/04 04:05:18;;;;;;;4.03;1.65;;;;;;;9.20;100.00;101298.31;5160994;28;20454;-72
2021/10/04 04:07:48;;;;;;;9.43;1.77;;;;;;;9.18;100.00;101300.25;5161082;28;20168;-72
2021/10/04 04:10:19;;;;;;;4.93;1.40;;;;;;;9.20;100.00;101291.13;5143288;28;20030;-72
2021/10/04 04:12:49;;;;;;;6.30;1.38;;;;;;;9.18;100.00;101298.44;5161221;28;20026;-72
2021/10/04 04:15:20;;;;;;;3.15;1.58;;;;;;;9.20;100.00;101303.66;5143603;28;20072;-72
2021/10/04 04:17:51;;;;;;;6.28;1.90;;;;;;;9.21;100.00;101305.34;5161005;28;20136;-73
2021/10/04 04:20:22;;;;;;;4.28;1.45;;;;;;;9.17;100.00;101317.31;5160755;28;20435;-72
2021/10/04 04:22:53;;;;;;;6.40;1.75;;;;;;;9.19;100.00;101318.88;5160718;28;20038;-72
2021/10/04 04:25:24;;;;;;;6.85;1.63;;;;;;;9.23;100.00;101316.72;5143299;28;20092;-72
2021/10/04 04:27:58;;;;;;;4.78;1.60;;;;;;;9.18;100.00;101319.00;5160941;28;20026;-73
2021/10/04 04:30:29;;;;;;;10.82;1.80;;;;;;;9.17;100.00;101311.97;5160964;28;20019;-74
2021/10/04 04:33:00;;;;;;;6.35;1.67;;;;;;;9.19;100.00;101313.53;5160797;28;20061;-74
2021/10/04 04:35:30;;;;;;;6.45;1.88;;;;;;;9.18;100.00;101338.59;5160606;28;20399;-74
2021/10/04 04:38:01;;;;;;;5.15;1.80;;;;;;;9.19;100.00;101329.59;5161043;28;20117;-74
2021/10/04 04:40:32;;;;;;;5.45;1.50;;;;;;;9.23;100.00;101340.84;5160249;28;20030;-73
2021/10/04 04:43:03;;;;;;;4.80;1.38;;;;;;;9.24;100.00;101346.06;5160856;28;20029;-74
2021/10/04 04:45:33;;;;;;;4.18;1.63;;;;;;;9.32;100.00;101339.97;5160530;28;20034;-74
2021/10/04 04:48:04;;;;;;;4.55;1.40;;;;;;;9.33;100.00;101353.19;5160308;28;20027;-72
2021/10/04 04:50:34;;;;;;;7.22;1.17;;;;;;;9.32;100.00;101356.03;5160245;28;20459;-73
2021/10/04 04:53:05;;;;;;;8.98;2.10;;;;;;;9.30;100.00;101342.78;5143378;28;20085;-73
2021/10/04 04:55:36;;;;;;;6.32;1.50;;;;;;;9.31;100.00;101349.00;5160511;28;20479;-73
2021/10/04 04:58:06;;;;;;;5.68;1.65;;;;;;;9.31;100.00;101354.34;5160877;28;20472;-73
2021/10/04 05:00:37;;;;;;;5.57;1.38;;;;;;;9.34;100.00;101354.06;5160413;28;20089;-73
2021/10/04 05:03:08;;;;;;;2.70;1.35;;;;;;;9.30;100.00;101358.00;5161662;28;20133;-73
2021/10/04 05:05:38;;;;;;;2.92;1.40;;;;;;;9.28;100.00;101371.53;5167504;28;20022;-77
2021/10/04 05:08:09;;;;;;;2.70;1.20;;;;;;;9.31;100.00;101363.22;5174579;28;20026;-74
2021/10/04 05:10:39;;;;;;;6.60;1.48;;;;;;;9.38;100.00;101360.78;5178056;28;20026;-73
2021/10/04 05:13:10;;;;;;;5.00;1.48;;;;;;;9.44;100.00;101367.41;5187546;28;20106;-73
2021/10/04 05:15:40;;;;;;;5.53;1.30;;;;;;;9.51;100.00;101371.19;5177391;28;20026;-73
2021/10/04 05:18:11;;;;;;;8.85;1.40;;;;;;;9.50;100.00;101359.63;5175227;28;20031;-73
2021/10/04 05:20:41;;;;;;;8.98;2.13;;;;;;;9.57;100.00;101366.09;5187990;28;20041;-73
2021/10/04 05:23:12;;;;;;;3.17;1.77;;;;;;;9.62;100.00;101356.75;5187040;28;20041;-73
2021/10/04 05:25:44;;;;;;;8.30;2.58;;;;;;;9.63;100.00;101369.16;5177174;28;20479;-74
2021/10/04 05:28:14;;;;;;;6.63;1.75;;;;;;;9.63;100.00;101377.19;5174079;28;20026;-73
2021/10/04 05:30:46;;;;;;;11.82;2.17;;;;;;;9.62;100.00;101378.19;5170990;28;20029;-72
2021/10/04 05:33:16;;;;;;;7.22;2.05;;;;;;;9.66;100.00;101379.59;5165551;28;20049;-74
2021/10/04 05:35:47;;;;;;;4.97;1.70;;;;;;;9.66;100.00;101380.44;5148953;28;20161;-73
2021/10/04 05:38:18;;;;;;;8.25;2.05;;;;;;;9.66;100.00;101379.59;5168570;28;20026;-72
2021/10/04 05:40:48;;;;;;;5.05;1.80;;;;;;;9.62;100.00;101380.88;5165069;28;20160;-73
2021/10/04 05:43:19;;;;;;;8.80;1.77;;;;;;;9.63;100.00;101378.03;5167034;28;20041;-73
2021/10/04 05:45:50;;;;;;;6.55;1.80;;;;;;;9.59;100.00;101385.56;5164824;28;20029;-74
2021/10/04 05:48:20;;;;;;;9.48;2.25;;;;;;;9.57;100.00;101386.66;5164202;28;20060;-74
2021/10/04 05:50:50;;;;;;;9.68;2.17;;;;;;;9.59;100.00;101387.38;5146579;28;20026;-74
2021/10/04 05:53:21;;;;;;;6.95;1.70;;;;;;;9.59;100.00;101384.72;5163682;28;20065;-73
2021/10/04 05:55:52;;;;;;;8.70;1.95;;;;;;;9.56;100.00;101395.69;5163461;28;20037;-73
2021/10/04 05:58:22;;;;;;;6.05;1.88;;;;;;;9.54;100.00;101393.19;5163568;28;20030;-73
2021/10/04 06:00:53;;;;;;;3.80;1.50;;;;;;;9.49;100.00;101394.63;5163178;28;20126;-73
2021/10/04 06:03:23;;;;;;;6.63;1.58;;;;;;;9.46;100.00;101408.28;5162883;28;20088;-74
2021/10/04 06:05:54;;;;;;;3.45;1.65;;;;;;;9.44;100.00;101410.25;5163358;28;20026;-73
2021/10/04 06:08:24;;;;;;;5.85;2.63;;;;;;;9.45;100.00;101409.28;5163404;28;20551;-73
2021/10/04 06:10:55;;;;;;;5.75;1.33;;;;;;;9.47;100.00;101404.59;5163126;28;20084;-73
2021/10/04 06:13:25;;;;;;;5.78;1.60;;;;;;;9.49;100.00;101411.53;5163234;28;20117;-73
2021/10/04 06:15:56;;;;;;;7.60;2.05;;;;;;;9.45;100.00;101417.31;5163475;28;20030;-73
2021/10/04 06:18:26;;;;;;;4.22;1.58;;;;;;;9.42;100.00;101415.75;5163205;28;20526;-73
2021/10/04 06:20:57;;;;;;;4.68;1.48;;;;;;;9.42;100.00;101409.56;5163067;28;20085;-72
2021/10/04 06:23:27;;;;;;;7.78;1.70;;;;;;;9.43;100.00;101417.44;5162780;28;20053;-72
2021/10/04 06:25:57;;;;;;;7.35;1.67;;;;;;;9.47;100.00;101429.56;5162337;28;20030;-73
2021/10/04 06:28:28;;;;;;;6.78;1.40;;;;;;;9.46;100.00;101438.59;5163122;28;20426;-73
2021/10/04 06:30:59;;;;;;;5.47;1.70;;;;;;;9.43;100.00;101446.91;5162636;28;20023;-72
2021/10/04 06:33:29;;;;;;;7.80;1.55;;;;;;;9.43;100.00;101446.06;5162806;28;20303;-72
2021/10/04 06:35:59;;;;;;;5.88;1.42;;;;;;;9.41;100.00;101445.38;5162397;28;20023;-72
2021/10/04 06:38:30;;;;;;;8.10;1.80;;;;;;;9.43;100.00;101449.56;5162388;28;20550;-72
2021/10/04 06:41:00;;;;;;;8.90;1.77;;;;;;;9.46;100.00;101451.13;5162346;28;20384;-72
2021/10/04 06:43:31;;;;;;;7.22;1.70;;;;;;;9.52;100.00;101459.44;5162527;28;20034;-73
2021/10/04 06:46:07;;;;;;;3.30;1.42;;;;;;;9.53;100.00;101460.28;5162527;28;20030;-72
2021/10/04 06:48:39;;;;;;;6.80;1.80;;;;;;;9.64;100.00;101459.25;5162450;28;20022;-73
2021/10/04 06:51:09;;;;;;;6.32;1.30;;;;;;;9.67;100.00;101462.50;5161927;28;20037;-72
2021/10/04 06:53:40;;;;;;;6.25;1.40;;;;;;;9.69;100.00;101460.53;5162483;28;20191;-72
2021/10/04 06:56:10;;;;;;;5.50;1.40;;;;;;;9.77;100.00;101454.44;5162306;28;20069;-72
2021/10/04 06:58:41;;;;;;;6.55;1.67;;;;;;;9.88;100.00;101462.28;5162349;28;20034;-72
2021/10/04 07:01:11;;;;;;;6.10;2.40;;;;;;;9.98;100.00;101463.09;5161795;28;20026;-72
2021/10/04 07:03:42;;;;;;;4.85;1.30;;;;;;;10.05;100.00;101466.88;5161668;28;20037;-72
2021/10/04 07:06:12;;;;;;;7.43;1.50;;;;;;;10.26;100.00;101469.34;5161902;28;20022;-73
2021/10/04 07:08:43;;;;;;;6.25;1.50;;;;;;;10.71;100.00;101473.88;5161890;28;20404;-73
2021/10/04 07:11:13;;;;;;;10.43;1.30;;;;;;;11.13;100.00;101471.41;5161780;28;20442;-73
2021/10/04 07:13:44;;;;;;;5.55;1.20;;;;;;;11.57;100.00;101468.75;5162086;28;20030;-72
2021/10/04 07:16:16;;;;;;;9.02;1.15;;;;;;;12.23;100.00;101478.03;5161599;28;20026;-73
2021/10/04 07:18:46;;;;;;;5.30;1.00;;;;;;;12.65;100.00;101479.84;5161861;28;20034;-73
2021/10/04 07:21:17;;;;;;;3.75;1.00;;;;;;;12.91;100.00;101475.22;5161341;28;20026;-73
2021/10/04 07:23:48;;;;;;;6.22;1.00;;;;;;;12.90;100.00;101491.53;5162129;28;20022;-73
2021/10/04 07:26:18;;;;;;;5.75;1.30;;;;;;;13.39;100.00;101503.22;5161374;28;20033;-73
2021/10/04 07:28:50;;;;;;;4.18;1.20;;;;;;;13.34;100.00;101502.88;5161673;28;20053;-73
2021/10/04 07:31:20;;;;;;;3.97;0.93;;;;;;;13.60;100.00;101502.69;5161708;28;20515;-73
2021/10/04 07:33:51;;;;;;;7.90;1.65;;;;;;;14.00;100.00;101501.78;5161043;28;20026;-73
2021/10/04 07:36:21;;;;;;;3.83;1.00;;;;;;;13.63;100.00;101486.19;5155021;28;20435;-73
2021/10/04 07:38:52;;;;;;;5.20;1.10;;;;;;;13.94;100.00;101490.84;5150136;28;20119;-73
2021/10/04 07:41:23;;;;;;;6.57;1.10;;;;;;;13.68;100.00;101491.06;5143113;28;20160;-73
2021/10/04 07:43:53;;;;;;;8.73;1.30;;;;;;;13.88;100.00;101497.78;5142726;28;20025;-73
2021/10/04 07:46:25;;;;;;;4.13;1.27;;;;;;;14.28;100.00;101503.22;5160259;28;20114;-73
2021/10/04 07:48:56;;;;;;;5.18;1.10;;;;;;;14.15;100.00;101496.50;5126697;28;20026;-73
2021/10/04 07:51:26;;;;;;;12.15;1.33;;;;;;;14.29;100.00;101497.66;5159714;28;20030;-73
2021/10/04 07:53:57;;;;;;;5.95;1.48;;;;;;;14.65;100.00;101491.78;5159838;28;20084;-73
2021/10/04 07:56:27;;;;;;;5.60;1.45;;;;;;;14.71;100.00;101491.91;5160270;28;20026;-73
2021/10/04 07:59:00;;;;;;;4.75;1.15;;;;;;;15.00;100.00;101499.31;5159679;28;20450;-73
2021/10/04 08:01:32;;;;;;;7.68;1.20;;;;;;;14.99;100.00;101500.34;5159763;28;20084;-73
2021/10/04 08:04:03;;;;;;;5.15;1.50;;;;;;;15.22;100.00;101491.41;5159278;28;20495;-73
2021/10/04 08:06:34;;;;;;;9.60;1.40;;;;;;;15.08;100.00;101493.03;5160009;28;20038;-73
2021/10/04 08:09:04;;;;;;;3.60;1.30;;;;;;;15.29;100.00;101490.47;5142165;28;20442;-73
2021/10/04 08:11:36;;;;;;;12.18;1.40;;;;;;;15.33;100.00;101492.84;5160217;28;20475;-73
2021/10/04 08:14:07;;;;;;;9.32;1.52;;;;;;;15.44;100.00;101490.53;5159950;28;20486;-73
2021/10/04 08:16:37;;;;;;;4.57;0.95;;;;;;;15.36;100.00;101497.88;5159343;28;20517;-73
2021/10/04 08:19:08;;;;;;;4.60;1.23;;;;;;;15.70;100.00;101494.72;5159956;28;20030;-73
2021/10/04 08:21:38;;;;;;;3.58;0.90;;;;;;;15.67;100.00;101493.25;5159830;28;20049;-74
2021/10/04 08:24:09;;;;;;;3.85;1.30;;;;;;;15.71;100.00;101493.69;5159632;28;20399;-73
2021/10/04 08:26:40;;;;;;;3.95;1.25;;;;;;;15.95;100.00;101482.59;5142398;28;20030;-73
2021/10/04 08:29:10;;;;;;;8.77;1.35;;;;;;;16.19;100.00;101478.78;5159637;28;20026;-73
2021/10/04 08:31:41;;;;;;;8.43;1.50;;;;;;;16.19;100.00;101489.63;5159567;28;20064;-73
2021/10/04 08:34:12;;;;;;;4.97;0.98;;;;;;;16.34;100.00;101499.59;5159303;28;20034;-73
2021/10/04 08:36:42;;;;;;;8.35;1.35;;;;;;;16.36;100.00;101501.06;5159418;28;20026;-73
2021/10/04 08:39:12;;;;;;;6.47;1.20;;;;;;;16.36;100.00;101511.06;5158936;28;20373;-73
2021/10/04 08:41:43;;;;;;;3.30;1.00;;;;;;;16.16;100.00;101513.50;5159457;28;20169;-73
2021/10/04 08:44:14;;;;;;;7.93;1.38;;;;;;;15.83;100.00;101513.88;5159270;28;20037;-73
2021/10/04 08:46:46;;;;;;;5.65;1.20;;;;;;;15.99;100.00;101513.69;5163496;28;20542;-73
2021/10/04 08:49:18;;;;;;;5.90;1.35;;;;;;;16.32;100.00;101524.16;5163544;28;20033;-73
2021/10/04 08:51:50;;;;;;;5.97;1.50;;;;;;;16.14;100.00;101524.53;5145935;28;20053;-73
2021/10/04 08:54:24;;;;;;;4.20;1.00;;;;;;;16.16;100.00;101532.44;5163308;28;20140;-73
2021/10/04 08:56:57;;;;;;;10.27;1.60;;;;;;;16.47;100.00;101538.53;5163604;28;20446;-72
2021/10/04 08:59:28;;;;;;;6.63;1.17;;;;;;;16.36;100.00;101530.03;5163185;28;20234;-73
2021/10/04 09:02:19;;;;;;;5.55;1.40;;;;;;;16.57;100.00;101524.69;5163419;28;20026;-73
2021/10/04 09:05:10;;;;;;;5.18;1.30;;;;;;;17.11;100.00;101531.59;5146216;28;20037;-73
2021/10/04 09:07:41;;;;;;;3.72;1.20;;;;;;;17.54;100.00;101527.00;5146148;28;20034;-73
2021/10/04 09:10:17;;;;;;;8.85;1.38;;;;;;;17.37;100.00;101512.88;5163348;28;20105;-73
2021/10/04 09:12:52;;;;;;;8.93;1.85;;;;;;;16.93;100.00;101519.31;5162755;28;20026;-73
2021/10/04 09:15:32;;;;;;;3.92;1.40;;;;;;;16.95;100.00;101521.81;5151277;28;20494;-72
2021/10/04 09:18:17;;;;;;;8.18;1.63;;;;;;;16.66;100.00;101520.81;5162857;28;20118;-73
2021/10/04 09:21:02;;;;;;;10.63;1.60;;;;;;;17.14;100.00;101523.91;5163177;28;20018;-73
2021/10/04 09:23:48;;;;;;;8.85;1.70;;;;;;;16.99;100.00;101521.25;5133144;28;20483;-73
2021/10/04 09:26:21;;;;;;;;;;;;;;;16.92;100.00;101512.22;5163153;28;20063;-73
2021/10/04 09:29:00;;;;;;;8.32;1.73;;;;;;;17.15;100.00;101520.16;5163178;28;19913;-73
2021/10/04 09:31:34;;;;;;;4.57;1.17;;;;;;;16.54;100.00;101515.06;5145160;28;20038;-73
2021/10/04 09:34:12;;;;;;;5.82;1.33;;;;;;;16.64;100.00;101509.34;5162409;28;20030;-73
2021/10/04 09:36:45;;;;;;;15.52;1.83;;;;;;;17.02;100.00;101512.75;5162703;28;20060;-72
2021/10/04 09:39:17;;;;;;;6.30;1.50;;;;;;;17.21;100.00;101516.66;5162504;28;20022;-73
2021/10/04 09:42:00;;;;;;;10.55;1.02;;;;;;;17.13;100.00;101516.81;5161922;28;20042;-73
2021/10/04 09:44:51;;;;;;;4.80;1.38;;;;;;;16.51;100.00;101509.19;5149390;28;20030;-73
2021/10/04 09:47:24;;;;;;;8.80;1.65;;;;;;;16.99;100.00;101506.88;5145613;28;20037;-73
2021/10/04 09:50:02;;;;;;;8.02;1.38;;;;;;;16.89;100.00;101518.00;5162571;28;20042;-73
2021/10/04 09:52:34;;;;;;;7.45;1.30;;;;;;;17.19;100.00;101513.31;5162128;28;20368;-73
2021/10/04 09:55:30;;;;;;;7.53;1.08;;;;;;;16.70;100.00;101510.47;5245217;23;20413;-76
2021/10/04 09:58:15;;;;;;;5.28;1.33;;;;;;;16.98;100.00;101510.63;5099858;29;20123;-76
2021/10/04 10:00:51;;;;;;;5.68;1.17;;;;;;;16.67;100.00;101500.03;5108680;28;20031;-77
2021/10/04 10:03:25;;;;;;;7.75;1.13;;;;;;;16.30;100.00;101502.66;5120973;29;20034;-76
2021/10/04 10:05:58;;;;;;;5.65;1.30;;;;;;;16.54;100.00;101501.53;5104846;29;20031;-77
2021/10/04 10:08:29;;;;;;;13.80;1.25;;;;;;;16.65;100.00;101502.91;5104225;29;20019;-77
2021/10/04 10:11:05;;;;;;;67.68;25.85;;;;;;;16.55;100.00;101496.94;5120910;29;20074;-77
2021/10/04 10:13:35;;;;;;;5.43;1.10;;;;;;;16.65;100.00;101494.78;5121307;28;20373;-77
2021/10/04 10:16:20;;;;;;;7.05;1.20;;;;;;;16.38;100.00;101496.31;5121499;28;20031;-77
2021/10/04 10:18:51;;;;;;;10.55;1.33;;;;;;;16.05;100.00;101498.56;5121326;28;20074;-76
2021/10/04 10:21:25;;;;;;;5.88;1.33;;;;;;;16.00;100.00;101509.13;5121266;28;20031;-77
2021/10/04 10:23:59;;;;;;;7.20;1.17;;;;;;;16.21;100.00;101506.50;5088528;29;20040;-77
2021/10/04 10:26:43;;;;;;;5.57;1.38;;;;;;;16.60;100.00;101497.22;5104207;29;20090;-76
2021/10/04 10:29:20;;;;;;;7.10;1.45;;;;;;;16.77;100.00;101503.31;5121137;29;20027;-76
2021/10/04 10:31:50;;;;;;;10.48;1.27;;;;;;;16.54;100.00;101516.94;5121003;28;20023;-76
2021/10/04 10:34:31;;;;;;;9.60;1.60;;;;;;;16.47;100.00;101506.03;5103764;29;20046;-76
2021/10/04 10:37:15;;;;;;;14.27;1.60;;;;;;;16.39;100.00;101513.41;5103986;28;20042;-76
2021/10/04 10:39:54;;;;;;;9.85;1.88;;;;;;;16.29;100.00;101505.56;5120669;29;20519;-77
2021/10/04 10:42:26;;;;;;;8.13;1.30;;;;;;;16.11;100.00;101513.22;5116963;29;20038;-76
2021/10/04 10:44:57;;;;;;;7.45;1.35;;;;;;;15.89;100.00;101506.88;5110314;29;20050;-76
2021/10/04 10:47:39;;;;;;;8.55;1.48;;;;;;;16.13;100.00;101524.72;5121019;29;20031;-76
2021/10/04 10:50:23;;;;;;;9.80;1.58;;;;;;;16.48;100.00;101523.13;5103910;29;20035;-79
2021/10/04 10:55:22;;;;;;;7.90;1.20;;;;;;;16.55;100.00;101505.91;5263535;27;20801;-74
2021/10/04 10:57:54;;;;;;;9.30;2.10;;;;;;;16.38;100.00;101511.75;5238653;28;20040;-74
2021/10/04 11:00:28;;;;;;;8.10;1.42;;;;;;;16.57;100.00;101505.75;5238502;28;20028;-74
2021/10/04 11:03:10;;;;;;;8.35;1.55;;;;;;;16.61;100.00;101511.59;5237994;28;20024;-74
2021/10/04 11:05:41;;;;;;;7.38;1.60;;;;;;;16.80;100.00;101511.88;5240889;28;20037;-74
2021/10/04 11:08:22;;;;;;;9.80;2.28;;;;;;;16.97;100.00;101522.50;5238884;28;20033;-75
2021/10/04 11:10:52;;;;;;;10.07;1.00;;;;;;;16.92;100.00;101516.78;5238778;28;20025;-75
2021/10/04 11:13:30;;;;;;;6.68;1.70;;;;;;;16.83;100.00;101516.06;5237972;28;20032;-75
2021/10/04 11:16:26;;;;;;;7.50;1.50;;;;;;;16.87;100.00;101506.53;5238331;28;20021;-74
2021/10/04 11:18:57;;;;;;;7.78;1.60;;;;;;;16.93;100.00;101521.19;5238109;28;20029;-74
2021/10/04 11:21:30;;;;;;;12.30;1.30;;;;;;;16.92;100.00;101514.06;5238425;28;20032;-74
2021/10/04 11:24:04;;;;;;;8.50;1.63;;;;;;;16.93;100.00;101499.50;5236597;28;20029;-74
2021/10/04 11:26:39;;;;;;;7.45;1.63;;;;;;;17.05;100.00;101497.97;5238012;28;20025;-74
2021/10/04 11:29:10;;;;;;;9.60;1.08;;;;;;;17.45;100.00;101495.63;5238384;28;20032;-74
2021/10/04 11:31:48;;;;;;;6.72;1.10;;;;;;;17.54;100.00;101489.03;5238013;28;20525;-75
2021/10/04 11:34:22;;;;;;;9.38;1.63;;;;;;;17.49;100.00;101488.78;5237771;28;20477;-74
2021/10/04 11:36:56;;;;;;;9.38;1.45;;;;;;;17.54;100.00;101483.59;5238327;28;20436;-74
2021/10/04 11:39:30;;;;;;;10.33;1.20;;;;;;;17.49;100.00;101475.22;5237982;28;20029;-74
2021/10/04 11:42:05;;;;;;;8.30;1.30;;;;;;;17.48;100.00;101489.81;5236383;28;20040;-75
2021/10/04 11:44:41;;;;;;;5.15;1.35;;;;;;;17.35;100.00;101480.50;5237865;28;20025;-74